New Orleans, Louisiana
Traffic Map
Current Weather Conditions
New Orleans, Louisiana
Clear
Clear
86°
Feels Like: 88°
Wind Chill: 86° Ceiling: Unl
Heat Index: 88° Visibility: 10mi
Dew Point: 65° Wind: 8mph
Humidity: 49% Direction: 300° (WNW)
Pressure: 29.97in Gusts: 0mph
Raw Report DataKNEW 282153Z 30007KT 10SM CLR 30/18 A2997 RMK AO2 SLP143 T03000183
Traffic Incident Summary
Active as of:
Severity:
Category:
InformationThere was an issue retrieving the traffic information for this location. Please try a different location or try again shortly.
Advertisements
Track Severe Weather on mobile